Time;durP1;ratioP1;P1;durP2;ratioP2;P2;SDS_P1;SDS_P2;PMS_P1;PMS_P2;Temp;Humidity;BMP_temperature;BMP_pressure;BME280_temperature;BME280_humidity;BME280_pressure;Samples;Min_cycle;Max_cycle;Signal;HPM_P1;HPM_P2
2023/04/10 00:00:30;;;;;;;5.77;4.93;;;6.70;99.90;;;;;;5059258;28;20176;-81
2023/04/10 00:02:57;;;;;;;6.37;5.30;;;6.70;99.90;;;;;;5055833;28;20191;-80
2023/04/10 00:05:23;;;;;;;6.43;5.07;;;6.70;99.90;;;;;;5057401;28;20274;-81
2023/04/10 00:07:48;;;;;;;8.17;4.83;;;6.70;99.90;;;;;;5057740;28;20195;-80
2023/04/10 00:10:14;;;;;;;5.40;4.37;;;6.70;99.90;;;;;;5058088;28;20176;-80
2023/04/10 00:12:39;;;;;;;7.70;4.97;;;6.70;99.90;;;;;;5057450;28;20199;-80
2023/04/10 00:15:06;;;;;;;7.07;4.70;;;6.70;99.90;;;;;;5057280;28;20285;-80
2023/04/10 00:17:31;;;;;;;5.40;4.80;;;6.70;99.90;;;;;;5057356;28;20175;-80
2023/04/10 00:19:58;;;;;;;6.80;4.57;;;6.70;99.90;;;;;;5057082;28;20738;-80
2023/04/10 00:22:23;;;;;;;5.60;4.63;;;6.70;99.90;;;;;;5056945;28;20605;-80
2023/04/10 00:24:49;;;;;;;6.37;5.17;;;6.70;99.90;;;;;;5056942;28;20206;-79
2023/04/10 00:27:15;;;;;;;8.00;5.20;;;6.70;99.90;;;;;;5058229;28;20171;-81
2023/04/10 00:29:40;;;;;;;6.40;5.10;;;6.70;99.90;;;;;;5056663;28;20178;-80
2023/04/10 00:32:06;;;;;;;6.80;5.23;;;6.70;99.90;;;;;;5056793;28;20561;-80
2023/04/10 00:34:31;;;;;;;5.97;5.13;;;6.70;99.90;;;;;;5056381;28;20168;-80
2023/04/10 00:36:58;;;;;;;7.63;5.60;;;6.70;64.80;;;;;;5056068;28;20175;-81
2023/04/10 00:39:23;;;;;;;7.43;5.60;;;6.80;21.40;;;;;;5056612;28;20198;-80
2023/04/10 00:41:49;;;;;;;7.27;5.57;;;6.80;1.00;;;;;;5057215;28;20632;-80
2023/04/10 00:44:15;;;;;;;6.13;4.73;;;6.80;1.00;;;;;;5056178;28;20229;-81
2023/04/10 00:46:40;;;;;;;6.80;5.57;;;6.90;1.00;;;;;;5055669;28;20274;-81
2023/04/10 00:49:08;;;;;;;7.60;6.03;;;6.90;1.00;;;;;;5057479;28;20532;-79
2023/04/10 00:51:35;;;;;;;6.40;5.40;;;6.90;1.00;;;;;;5055064;28;20183;-80
2023/04/10 00:54:01;;;;;;;7.87;5.97;;;6.90;1.00;;;;;;5056928;28;20270;-80
2023/04/10 00:56:30;;;;;;;7.70;5.67;;;7.00;1.00;;;;;;5055528;28;20244;-80
2023/04/10 00:58:56;;;;;;;7.90;6.33;;;7.00;99.90;;;;;;5057236;28;20270;-81
2023/04/10 01:01:21;;;;;;;9.17;5.90;;;7.00;99.90;;;;;;5055493;28;20188;-81
2023/04/10 01:03:47;;;;;;;7.50;5.70;;;7.00;1.00;;;;;;5056563;28;20226;-81
2023/04/10 01:06:22;;;;;;;7.27;5.93;;;7.10;1.00;;;;;;5055500;28;20210;-81
2023/04/10 01:09:24;;;;;;;6.53;5.53;;;7.10;1.00;;;;;;5055697;28;20166;-80
2023/04/10 01:11:53;;;;;;;7.70;5.40;;;7.10;99.90;;;;;;5050179;28;20199;-80
2023/04/10 01:14:26;;;;;;;8.10;5.53;;;7.20;99.90;;;;;;5057635;28;20172;-81
2023/04/10 01:17:02;;;;;;;6.97;5.70;;;7.20;53.80;;;;;;5057055;28;20160;-80
2023/04/10 01:19:59;;;;;;;6.37;5.00;;;7.20;1.00;;;;;;5056932;28;20243;-80
2023/04/10 01:22:49;;;;;;;7.03;5.63;;;7.20;99.90;;;;;;5055120;28;20203;-81
2023/04/10 01:25:43;;;;;;;6.87;5.13;;;7.30;99.90;;;;;;5053207;28;20215;-81
2023/04/10 01:28:49;;;;;;;7.73;5.23;;;7.30;90.20;;;;;;5055579;28;20168;-80
2023/04/10 01:31:27;;;;;;;7.10;5.20;;;7.30;4.70;;;;;;5056381;28;20262;-81
2023/04/10 01:34:00;;;;;;;7.33;5.70;;;7.30;1.00;;;;;;5058144;28;20233;-81
2023/04/10 01:36:30;;;;;;;6.60;5.40;;;7.30;1.00;;;;;;5058555;28;20187;-81
2023/04/10 01:38:57;;;;;;;5.77;4.93;;;7.30;99.90;;;;;;5060026;28;20199;-80
2023/04/10 01:41:25;;;;;;;6.93;5.57;;;7.40;1.00;;;;;;5060034;28;20223;-79
2023/04/10 01:43:52;;;;;;;6.77;5.30;;;7.40;99.90;;;;;;5058265;28;20203;-81
2023/04/10 01:46:22;;;;;;;6.77;5.73;;;7.40;99.90;;;;;;5060253;28;20282;-80
2023/04/10 01:48:50;;;;;;;8.50;6.43;;;7.40;99.90;;;;;;5059860;28;20167;-81
2023/04/10 01:51:16;;;;;;;8.60;6.13;;;7.40;99.90;;;;;;5059890;28;20163;-80
2023/04/10 01:53:44;;;;;;;6.73;5.53;;;7.40;33.00;;;;;;5057801;28;20290;-81
2023/04/10 01:56:11;;;;;;;8.13;6.00;;;7.40;1.00;;;;;;5058188;28;20175;-80
2023/04/10 01:58:37;;;;;;;8.47;6.27;;;7.50;1.00;;;;;;5059597;28;20172;-81
2023/04/10 02:01:03;;;;;;;7.70;5.60;;;7.50;99.90;;;;;;5059485;28;20573;-81
2023/04/10 02:03:28;;;;;;;8.10;6.03;;;7.50;1.00;;;;;;5058003;28;20218;-81
2023/04/10 02:06:14;;;;;;;8.17;5.67;;;7.50;99.90;;;;;;5058052;28;20210;-80
2023/04/10 02:08:45;;;;;;;7.67;6.17;;;7.50;99.90;;;;;;5059511;28;20159;-80
2023/04/10 02:11:14;;;;;;;8.53;6.33;;;7.50;99.90;;;;;;5059463;28;20271;-80
2023/04/10 02:13:40;;;;;;;8.70;6.03;;;7.60;99.90;;;;;;5058730;28;20210;-81
2023/04/10 02:16:07;;;;;;;6.77;5.60;;;7.60;99.90;;;;;;5059466;28;20650;-81
2023/04/10 02:18:34;;;;;;;8.27;6.00;;;7.60;99.90;;;;;;5058653;28;20167;-80
2023/04/10 02:21:01;;;;;;;8.33;6.13;;;7.50;99.90;;;;;;5061205;28;20250;-80
2023/04/10 02:23:27;;;;;;;10.70;6.67;;;7.50;99.90;;;;;;5060803;28;20184;-80
2023/04/10 02:25:55;;;;;;;7.60;6.30;;;7.50;12.00;;;;;;5060677;28;20195;-81
2023/04/10 02:28:20;;;;;;;9.60;5.93;;;7.50;8.70;;;;;;5059270;28;20235;-81
2023/04/10 02:30:46;;;;;;;9.90;6.53;;;7.50;1.00;;;;;;5060515;28;20212;-81
2023/04/10 02:33:11;;;;;;;8.23;6.10;;;7.50;13.40;;;;;;5058972;28;20267;-79
2023/04/10 02:35:37;;;;;;;8.50;6.33;;;7.60;74.50;;;;;;5057516;28;20613;-78
2023/04/10 02:38:02;;;;;;;8.97;6.20;;;7.60;99.90;;;;;;5059870;28;20313;-81
2023/04/10 02:40:28;;;;;;;8.13;6.03;;;7.50;1.00;;;;;;5060684;28;20539;-81
2023/04/10 02:42:53;;;;;;;12.50;6.90;;;7.50;1.00;;;;;;5059489;28;20228;-79
2023/04/10 02:45:19;;;;;;;8.50;6.07;;;7.50;1.00;;;;;;5060414;28;20196;-79
2023/04/10 02:47:45;;;;;;;7.77;6.00;;;7.50;1.00;;;;;;5060073;28;20168;-79
2023/04/10 02:50:10;;;;;;;9.47;6.33;;;7.40;1.00;;;;;;5058587;28;20171;-79
2023/04/10 02:52:36;;;;;;;8.67;6.00;;;7.40;1.00;;;;;;5058120;28;20192;-79
2023/04/10 02:55:01;;;;;;;8.20;6.03;;;7.40;1.00;;;;;;5060434;28;20171;-79
2023/04/10 02:57:27;;;;;;;11.50;6.53;;;7.40;1.00;;;;;;5060203;28;20180;-79
2023/04/10 02:59:53;;;;;;;7.57;6.13;;;7.30;99.90;;;;;;5073947;28;20168;-79
2023/04/10 03:02:19;;;;;;;7.63;5.47;;;7.30;99.90;;;;;;5073459;28;20219;-78
2023/04/10 03:04:44;;;;;;;7.80;5.50;;;7.30;99.90;;;;;;5073627;28;20213;-79
2023/04/10 03:07:10;;;;;;;8.30;6.20;;;7.30;99.90;;;;;;5074181;28;20176;-79
2023/04/10 03:09:36;;;;;;;7.43;5.67;;;7.30;99.90;;;;;;5070025;28;20176;-79
2023/04/10 03:12:01;;;;;;;6.93;5.33;;;7.20;1.00;;;;;;5061011;28;20199;-79
2023/04/10 03:14:27;;;;;;;7.27;5.70;;;7.20;1.00;;;;;;5061398;28;20221;-79
2023/04/10 03:16:52;;;;;;;6.63;5.17;;;7.20;1.00;;;;;;5061311;28;20547;-79
2023/04/10 03:19:18;;;;;;;6.73;5.10;;;7.10;1.00;;;;;;5059999;28;20175;-78
2023/04/10 03:21:45;;;;;;;7.70;5.30;;;7.10;1.00;;;;;;5059248;28;20281;-79
2023/04/10 03:24:10;;;;;;;7.00;5.60;;;7.10;1.00;;;;;;5060581;28;20225;-78
2023/04/10 03:26:36;;;;;;;6.13;4.77;;;7.10;99.90;;;;;;5059593;28;20196;-79
2023/04/10 03:29:01;;;;;;;7.87;5.47;;;7.10;99.90;;;;;;5058962;28;20202;-79
2023/04/10 03:31:27;;;;;;;7.67;5.50;;;7.10;99.90;;;;;;5058629;28;20635;-79
2023/04/10 03:33:53;;;;;;;6.77;5.30;;;7.10;99.90;;;;;;5058023;28;20192;-79
2023/04/10 03:36:18;;;;;;;7.43;5.30;;;7.00;99.90;;;;;;5066063;28;20539;-78
2023/04/10 03:38:44;;;;;;;7.83;5.27;;;7.00;1.00;;;;;;5068766;28;20183;-79
2023/04/10 03:41:09;;;;;;;6.20;5.17;;;7.00;99.90;;;;;;5059040;28;20176;-79
2023/04/10 03:43:35;;;;;;;7.77;5.23;;;7.00;1.00;;;;;;5058897;28;20196;-80
2023/04/10 03:46:01;;;;;;;7.43;4.93;;;7.00;99.90;;;;;;5059147;28;20286;-79
2023/04/10 03:48:27;;;;;;;7.17;5.40;;;7.00;99.90;;;;;;5059431;28;20168;-79
2023/04/10 03:50:53;;;;;;;6.17;4.90;;;7.00;1.00;;;;;;5058964;28;20168;-79
2023/04/10 03:53:19;;;;;;;6.00;5.27;;;6.90;1.00;;;;;;5056758;28;20199;-79
2023/04/10 03:55:44;;;;;;;7.77;6.10;;;6.90;1.00;;;;;;5057656;28;20595;-79
2023/04/10 03:58:11;;;;;;;7.60;5.70;;;6.90;1.00;;;;;;5058022;28;20550;-78
2023/04/10 04:00:36;;;;;;;7.23;5.73;;;6.90;99.90;;;;;;5058267;28;20677;-79
2023/04/10 04:03:03;;;;;;;8.17;5.57;;;6.90;23.80;;;;;;5059605;28;20191;-79
2023/04/10 04:05:32;;;;;;;7.47;4.80;;;6.80;1.00;;;;;;5059560;28;20196;-80
2023/04/10 04:07:57;;;;;;;8.07;5.30;;;6.80;12.80;;;;;;5060159;28;20661;-79
2023/04/10 04:10:23;;;;;;;7.60;5.20;;;6.80;51.20;;;;;;5057875;28;20180;-80
2023/04/10 04:12:49;;;;;;;6.47;5.23;;;6.80;99.90;;;;;;5059933;28;20639;-80
2023/04/10 04:15:15;;;;;;;6.80;4.90;;;6.80;74.60;;;;;;5058644;28;20179;-80
2023/04/10 04:17:41;;;;;;;5.73;4.73;;;6.70;11.50;;;;;;5058110;28;20190;-79
2023/04/10 04:20:07;;;;;;;8.33;5.80;;;6.70;1.00;;;;;;5059735;28;20176;-80
2023/04/10 04:22:32;;;;;;;5.73;4.87;;;6.70;99.90;;;;;;5059764;28;20200;-80
2023/04/10 04:24:58;;;;;;;7.43;4.83;;;6.70;99.90;;;;;;5058141;28;20686;-80
2023/04/10 04:27:24;;;;;;;6.80;5.10;;;6.70;99.90;;;;;;5059129;28;20202;-80
2023/04/10 04:29:49;;;;;;;7.60;5.50;;;6.70;99.90;;;;;;5057794;28;20183;-80
2023/04/10 04:32:15;;;;;;;6.57;4.93;;;6.70;94.00;;;;;;5059826;28;20241;-79
2023/04/10 04:34:40;;;;;;;5.47;4.77;;;6.60;1.00;;;;;;5058357;28;20245;-80
2023/04/10 04:37:06;;;;;;;8.40;5.43;;;6.60;1.00;;;;;;5057526;28;20171;-80
2023/04/10 04:39:32;;;;;;;5.87;4.70;;;6.60;1.00;;;;;;5058458;28;20183;-80
2023/04/10 04:41:57;;;;;;;5.73;4.60;;;6.60;90.70;;;;;;5059207;28;20199;-80
2023/04/10 04:44:23;;;;;;;7.73;5.13;;;6.60;99.90;;;;;;5057078;28;20184;-79
2023/04/10 04:46:48;;;;;;;5.83;5.03;;;6.50;1.00;;;;;;5058975;28;20203;-80
2023/04/10 04:49:14;;;;;;;7.30;5.50;;;6.50;1.00;;;;;;5058953;28;20178;-79
2023/04/10 04:51:39;;;;;;;6.13;4.60;;;6.50;1.00;;;;;;5059122;28;20163;-80
2023/04/10 04:54:05;;;;;;;6.13;5.37;;;6.50;1.00;;;;;;5058067;28;20221;-80
2023/04/10 04:56:31;;;;;;;7.20;5.43;;;6.40;1.00;;;;;;5058722;28;20191;-80
2023/04/10 04:58:56;;;;;;;9.73;5.60;;;6.40;1.00;;;;;;5057400;28;20175;-80
2023/04/10 05:01:22;;;;;;;7.67;5.40;;;6.40;1.00;;;;;;5057049;28;20235;-80
2023/04/10 05:03:48;;;;;;;10.53;5.20;;;6.50;1.00;;;;;;5058251;28;20253;-79
2023/04/10 05:06:13;;;;;;;5.90;5.23;;;6.40;99.90;;;;;;5058789;28;20198;-80
2023/04/10 05:08:39;;;;;;;8.97;5.77;;;6.40;48.80;;;;;;5056839;28;20179;-79
2023/04/10 05:11:05;;;;;;;8.83;5.50;;;6.40;99.90;;;;;;5057860;28;20202;-80
2023/04/10 05:13:30;;;;;;;6.97;5.17;;;6.40;36.30;;;;;;5058877;28;20188;-79
2023/04/10 05:15:56;;;;;;;5.77;4.53;;;6.40;86.20;;;;;;5057649;28;20180;-78
2023/04/10 05:18:22;;;;;;;7.40;5.73;;;6.30;1.00;;;;;;5056864;28;20195;-80
2023/04/10 05:20:48;;;;;;;8.53;5.23;;;6.50;1.00;;;;;;5057059;28;20186;-80
2023/04/10 05:23:15;;;;;;;6.30;4.90;;;6.40;1.00;;;;;;5057586;28;20690;-79
2023/04/10 05:25:41;;;;;;;7.50;5.40;;;6.50;1.00;;;;;;5058475;28;20274;-80
2023/04/10 05:28:06;;;;;;;7.53;5.17;;;6.50;1.00;;;;;;5057500;28;20210;-79
2023/04/10 05:30:32;;;;;;;6.80;5.20;;;6.60;99.90;;;;;;5058728;28;20246;-80
2023/04/10 05:32:58;;;;;;;7.17;5.20;;;6.60;99.90;;;;;;5056582;28;20195;-80
2023/04/10 05:35:23;;;;;;;7.50;5.80;;;6.70;1.00;;;;;;5058998;28;20175;-79
2023/04/10 05:37:49;;;;;;;6.80;5.77;;;6.70;1.00;;;;;;5059042;28;20596;-80
2023/04/10 05:40:14;;;;;;;7.63;5.57;;;6.80;99.90;;;;;;5059994;28;20259;-80
2023/04/10 05:42:40;;;;;;;9.03;5.60;;;6.90;34.20;;;;;;5057965;28;20195;-79
2023/04/10 05:45:06;;;;;;;8.43;5.90;;;7.00;1.00;;;;;;5058627;28;20694;-80
2023/04/10 05:47:32;;;;;;;10.33;6.07;;;7.10;99.90;;;;;;5058413;28;20523;-80
2023/04/10 05:49:57;;;;;;;7.57;5.53;;;7.10;1.00;;;;;;5057422;28;20179;-79
2023/04/10 05:52:23;;;;;;;6.87;5.57;;;7.20;1.00;;;;;;5058534;28;20194;-79
2023/04/10 05:54:48;;;;;;;11.03;5.53;;;7.30;99.90;;;;;;5058133;28;20167;-79
2023/04/10 05:57:14;;;;;;;6.27;5.17;;;7.40;99.90;;;;;;5057299;28;20172;-79
2023/04/10 05:59:40;;;;;;;7.97;5.90;;;7.50;52.50;;;;;;5059177;28;20179;-79
2023/04/10 06:02:06;;;;;;;6.80;5.60;;;7.60;1.00;;;;;;5059262;28;20690;-79
2023/04/10 06:04:31;;;;;;;8.93;5.83;;;7.60;1.00;;;;;;5059810;28;20164;-79
2023/04/10 06:06:57;;;;;;;7.60;5.80;;;7.80;99.90;;;;;;5060734;28;20344;-80
2023/04/10 06:09:22;;;;;;;8.00;5.47;;;7.80;1.00;;;;;;5063183;28;20172;-78
2023/04/10 06:11:48;;;;;;;9.77;5.70;;;7.90;3.60;;;;;;5070101;28;20290;-80
2023/04/10 06:14:14;;;;;;;8.67;5.27;;;8.00;1.00;;;;;;5069698;28;20332;-80
2023/04/10 06:16:39;;;;;;;6.93;5.30;;;8.10;1.00;;;;;;5061764;28;20179;-79
2023/04/10 06:19:05;;;;;;;6.67;4.70;;;8.10;1.00;;;;;;5063953;28;20191;-80
2023/04/10 06:21:31;;;;;;;6.97;5.50;;;8.20;99.90;;;;;;5063991;28;20179;-80
2023/04/10 06:23:56;;;;;;;6.43;5.07;;;8.20;99.90;;;;;;5062626;28;20191;-80
2023/04/10 06:26:23;;;;;;;7.17;5.33;;;8.30;99.90;;;;;;5061663;28;20277;-80
2023/04/10 06:28:49;;;;;;;7.97;5.70;;;8.40;6.50;;;;;;5061394;28;20542;-80
2023/04/10 06:31:14;;;;;;;6.77;5.13;;;8.40;65.50;;;;;;5059923;28;20190;-80
2023/04/10 06:33:40;;;;;;;6.80;5.10;;;8.50;1.00;;;;;;5061083;28;20208;-80
2023/04/10 06:36:06;;;;;;;7.30;5.13;;;8.60;1.00;;;;;;5059699;28;20573;-79
2023/04/10 06:38:36;;;;;;;5.33;4.83;;;8.70;1.00;;;;;;5059264;28;20180;-80
2023/04/10 06:41:02;;;;;;;7.30;5.00;;;8.80;1.00;;;;;;5059587;28;20182;-80
2023/04/10 06:43:29;;;;;;;5.70;4.80;;;8.90;99.90;;;;;;5059391;28;20191;-80
2023/04/10 06:45:54;;;;;;;7.37;5.40;;;9.00;99.90;;;;;;5061233;28;20191;-80
2023/04/10 06:48:20;;;;;;;6.50;4.77;;;9.20;1.00;;;;;;5058734;28;20171;-80
2023/04/10 06:50:45;;;;;;;7.90;5.07;;;9.20;1.00;;;;;;5059183;28;20171;-80
2023/04/10 06:53:11;;;;;;;5.90;4.57;;;9.30;1.00;;;;;;5060747;28;20255;-81
2023/04/10 06:55:37;;;;;;;6.43;4.70;;;9.50;1.00;;;;;;5060426;28;20211;-80
2023/04/10 06:58:02;;;;;;;7.97;5.27;;;9.60;1.00;;;;;;5060805;28;20206;-80
2023/04/10 07:00:30;;;;;;;4.73;4.10;;;9.70;99.90;;;;;;5059793;28;20647;-80
2023/04/10 07:02:55;;;;;;;5.97;4.60;;;9.80;99.90;;;;;;5058383;28;20208;-81
2023/04/10 07:05:21;;;;;;;7.03;4.93;;;9.80;1.00;;;;;;5059861;28;20207;-80
2023/04/10 07:07:46;;;;;;;7.47;4.53;;;9.90;1.00;;;;;;5059096;28;20622;-80
2023/04/10 07:10:12;;;;;;;6.27;4.77;;;10.00;45.10;;;;;;5060430;28;20175;-81
2023/04/10 07:12:38;;;;;;;6.27;4.90;;;10.10;1.00;;;;;;5059923;28;20663;-81
2023/04/10 07:15:04;;;;;;;5.93;4.70;;;10.10;1.00;;;;;;5059965;28;20662;-81
2023/04/10 07:17:29;;;;;;;7.67;4.60;;;10.30;1.00;;;;;;5060329;28;20241;-80
2023/04/10 07:19:55;;;;;;;5.73;4.37;;;10.30;1.00;;;;;;5058926;28;20175;-80
2023/04/10 07:22:20;;;;;;;6.47;4.43;;;10.40;1.00;;;;;;5059289;28;20191;-81
2023/04/10 07:24:47;;;;;;;6.70;4.50;;;10.50;99.90;;;;;;5060221;28;20172;-80
2023/04/10 07:27:12;;;;;;;6.00;4.60;;;10.60;1.00;;;;;;5057641;28;20197;-81
2023/04/10 07:29:38;;;;;;;6.60;5.00;;;10.70;99.90;;;;;;5059116;28;20255;-80
2023/04/10 07:32:03;;;;;;;7.33;4.57;;;10.70;99.90;;;;;;5058348;28;20192;-80
2023/04/10 07:34:30;;;;;;;8.60;4.53;;;10.80;99.90;;;;;;5058779;28;20277;-81
2023/04/10 07:36:55;;;;;;;6.60;4.03;;;10.70;99.90;;;;;;5060684;28;20589;-80
2023/04/10 07:39:21;;;;;;;5.17;4.20;;;10.80;99.90;;;;;;5061296;28;20191;-81
2023/04/10 07:41:47;;;;;;;5.50;4.50;;;10.90;99.90;;;;;;5061756;28;20673;-80
2023/04/10 07:44:13;;;;;;;6.07;4.27;;;10.80;99.90;;;;;;5060278;28;20639;-81
2023/04/10 07:46:39;;;;;;;5.70;4.73;;;10.90;99.90;;;;;;5061472;28;20570;-80
2023/04/10 07:49:05;;;;;;;4.90;3.90;;;10.90;99.90;;;;;;5062270;28;20199;-81
2023/04/10 07:51:30;;;;;;;6.23;4.80;;;10.90;99.90;;;;;;5061759;28;20164;-79
2023/04/10 07:53:56;;;;;;;4.80;3.97;;;11.00;99.90;;;;;;5061276;28;20200;-81
2023/04/10 07:56:22;;;;;;;5.03;3.73;;;11.10;99.90;;;;;;5061259;28;20628;-80
2023/04/10 07:58:48;;;;;;;4.70;3.70;;;11.10;99.90;;;;;;5059952;28;20190;-80
2023/04/10 08:01:14;;;;;;;6.20;3.87;;;11.20;99.90;;;;;;5058903;28;20176;-80
2023/04/10 08:03:41;;;;;;;4.67;3.73;;;11.30;99.90;;;;;;5058673;28;20196;-80
2023/04/10 08:06:08;;;;;;;4.40;3.50;;;11.40;99.90;;;;;;5058691;28;20203;-80
2023/04/10 08:08:35;;;;;;;5.97;3.80;;;11.50;99.90;;;;;;5058690;28;20176;-80
2023/04/10 08:11:01;;;;;;;5.63;4.03;;;11.60;1.00;;;;;;5060507;28;20651;-80
2023/04/10 08:13:27;;;;;;;5.90;4.17;;;11.70;1.00;;;;;;5060881;28;20234;-80
2023/04/10 08:15:52;;;;;;;5.93;4.33;;;11.70;1.00;;;;;;5063158;28;20619;-79
2023/04/10 08:18:18;;;;;;;6.93;4.43;;;11.80;1.00;;;;;;5072288;28;20227;-80
2023/04/10 08:20:43;;;;;;;5.23;3.97;;;11.80;1.00;;;;;;5066203;28;20719;-79
2023/04/10 08:23:09;;;;;;;5.53;3.83;;;11.90;1.00;;;;;;5057447;28;20199;-81
2023/04/10 08:25:34;;;;;;;4.90;4.07;;;12.00;1.00;;;;;;5056932;28;20199;-81
2023/04/10 08:28:00;;;;;;;4.50;4.00;;;12.10;1.00;;;;;;5056520;28;20193;-81
2023/04/10 08:30:25;;;;;;;4.27;3.87;;;12.20;1.00;;;;;;5057009;28;20176;-81
2023/04/10 08:32:51;;;;;;;4.97;4.40;;;12.30;1.00;;;;;;5056880;28;20191;-81
2023/04/10 08:35:16;;;;;;;4.70;3.30;;;12.30;1.00;;;;;;5056665;28;20593;-81
2023/04/10 08:37:42;;;;;;;5.33;3.90;;;12.40;1.00;;;;;;5056795;28;20186;-81
2023/04/10 08:40:08;;;;;;;5.87;3.57;;;12.50;1.00;;;;;;5055389;28;20176;-80
2023/04/10 08:42:35;;;;;;;3.70;3.20;;;12.60;1.00;;;;;;5056357;28;20222;-81
2023/04/10 08:45:00;;;;;;;8.10;3.50;;;12.70;1.00;;;;;;5056572;28;20182;-81
2023/04/10 08:47:28;;;;;;;4.23;3.57;;;12.80;1.00;;;;;;5056491;28;20164;-81
2023/04/10 08:49:56;;;;;;;3.97;3.23;;;12.80;1.00;;;;;;5057361;28;20241;-80
2023/04/10 08:52:24;;;;;;;10.17;3.50;;;12.80;99.90;;;;;;5056207;28;20675;-81
2023/04/10 08:54:56;;;;;;;3.87;3.37;;;12.90;99.90;;;;;;5056655;28;20194;-81
2023/04/10 08:57:22;;;;;;;4.43;3.47;;;12.90;99.90;;;;;;5055160;28;20164;-81
2023/04/10 08:59:49;;;;;;;3.97;3.20;;;12.90;99.90;;;;;;5056299;28;20247;-81
2023/04/10 09:02:14;;;;;;;4.63;3.60;;;13.00;99.90;;;;;;5054828;28;20290;-81
2023/04/10 09:04:51;;;;;;;5.37;3.40;;;12.90;99.90;;;;;;5055671;28;20206;-81
2023/04/10 09:07:17;;;;;;;4.37;3.53;;;12.90;99.90;;;;;;5056106;28;20164;-81
2023/04/10 09:09:43;;;;;;;3.37;3.07;;;12.90;99.90;;;;;;5056697;28;20175;-80
2023/04/10 09:12:11;;;;;;;4.07;3.00;;;12.90;99.90;;;;;;5056185;28;20295;-80
2023/04/10 09:14:37;;;;;;;3.40;2.97;;;13.00;1.00;;;;;;5054734;28;20194;-81
2023/04/10 09:17:20;;;;;;;4.17;2.97;;;13.10;1.00;;;;;;5056608;28;20168;-80
2023/04/10 09:19:48;;;;;;;3.43;3.03;;;13.20;99.90;;;;;;5056436;28;20584;-81
2023/04/10 09:22:15;;;;;;;4.40;3.20;;;13.40;99.90;;;;;;5054605;28;20191;-81
2023/04/10 09:24:46;;;;;;;3.47;2.93;;;13.40;99.90;;;;;;5054926;28;20171;-81
2023/04/10 09:27:34;;;;;;;4.07;3.13;;;13.60;99.90;;;;;;5054381;28;20210;-81
2023/04/10 09:30:00;;;;;;;6.07;2.97;;;13.70;99.90;;;;;;5055525;28;20612;-81
2023/04/10 09:32:46;;;;;;;3.63;2.93;;;13.80;99.90;;;;;;5055745;28;20194;-81
2023/04/10 09:35:13;;;;;;;3.47;3.17;;;13.90;61.50;;;;;;5056146;28;20534;-80
2023/04/10 09:37:41;;;;;;;4.07;3.10;;;13.90;99.90;;;;;;5055958;28;20593;-81
2023/04/10 09:40:20;;;;;;;5.83;3.20;;;14.00;99.90;;;;;;5056046;28;20179;-80
2023/04/10 09:42:45;;;;;;;3.47;2.90;;;14.00;17.80;;;;;;5057705;28;20198;-80
2023/04/10 09:45:11;;;;;;;4.33;3.00;;;14.10;99.90;;;;;;5057641;28;20200;-81
2023/04/10 09:47:37;;;;;;;3.93;3.10;;;14.20;31.60;;;;;;5058084;28;20164;-80
2023/04/10 09:50:03;;;;;;;3.03;2.53;;;14.20;45.30;;;;;;5056103;28;20176;-80
2023/04/10 09:52:31;;;;;;;4.00;2.80;;;14.30;91.50;;;;;;5060189;28;20291;-81
2023/04/10 09:55:07;;;;;;;3.37;2.60;;;14.40;30.40;;;;;;5060526;28;20546;-81
2023/04/10 09:57:34;;;;;;;3.83;2.67;;;14.50;1.00;;;;;;5059754;28;20603;-81
2023/04/10 10:00:03;;;;;;;3.83;2.63;;;14.50;1.00;;;;;;5062286;28;20172;-80
2023/04/10 10:02:30;;;;;;;2.77;2.17;;;14.60;55.40;;;;;;5061391;28;20184;-79
2023/04/10 10:04:59;;;;;;;2.90;2.47;;;14.70;1.00;;;;;;5059448;28;20183;-79
2023/04/10 10:07:25;;;;;;;3.50;2.70;;;14.70;31.70;;;;;;5061241;28;20191;-79
2023/04/10 10:09:51;;;;;;;3.97;2.80;;;14.80;53.10;;;;;;5059883;28;20203;-80
2023/04/10 10:12:39;;;;;;;3.23;2.53;;;14.80;40.00;;;;;;5060817;28;20215;-79
2023/04/10 10:15:20;;;;;;;3.90;2.70;;;14.90;65.20;;;;;;5061965;28;20557;-80
2023/04/10 10:18:08;;;;;;;4.17;2.83;;;14.90;1.00;;;;;;5062761;28;20266;-79
2023/04/10 10:20:35;;;;;;;3.00;2.57;;;15.00;1.00;;;;;;5064388;28;20163;-79
2023/04/10 10:23:06;;;;;;;2.60;2.27;;;15.10;1.00;;;;;;5073503;28;20222;-80
2023/04/10 10:25:34;;;;;;;2.77;2.30;;;15.10;1.00;;;;;;5072062;28;20215;-80
2023/04/10 10:28:03;;;;;;;2.90;2.60;;;15.30;1.00;;;;;;5057566;28;20179;-80
2023/04/10 10:30:34;;;;;;;5.03;2.63;;;15.40;1.00;;;;;;5058492;28;20195;-80
2023/04/10 10:33:01;;;;;;;3.53;2.50;;;15.50;1.00;;;;;;5061761;28;20195;-80
2023/04/10 10:35:29;;;;;;;2.80;2.40;;;15.50;1.00;;;;;;5060607;28;20183;-80
2023/04/10 10:37:55;;;;;;;2.50;2.30;;;15.60;1.00;;;;;;5061529;28;20175;-81
2023/04/10 10:40:54;;;;;;;5.63;2.50;;;15.60;1.00;;;;;;5057679;28;20209;-79
2023/04/10 10:43:46;;;;;;;2.97;2.57;;;15.60;1.00;;;;;;5057724;28;20286;-80
2023/04/10 10:46:48;;;;;;;2.57;2.37;;;15.70;1.00;;;;;;5058410;28;20201;-80
2023/04/10 10:49:14;;;;;;;4.43;2.70;;;15.70;1.00;;;;;;5021484;28;20172;-80
2023/04/10 10:51:48;;;;;;;2.67;2.20;;;15.80;1.00;;;;;;5054449;28;20190;-78
2023/04/10 10:54:33;;;;;;;3.17;2.50;;;15.90;1.00;;;;;;5058854;28;20203;-80
2023/04/10 10:57:00;;;;;;;2.70;2.47;;;15.90;1.00;;;;;;5059370;28;20166;-80
2023/04/10 11:00:01;;;;;;;4.33;2.60;;;15.90;1.00;;;;;;5058833;28;20171;-79
2023/04/10 11:02:26;;;;;;;3.23;2.37;;;15.90;1.00;;;;;;5035992;28;20272;-80
2023/04/10 11:04:52;;;;;;;2.83;2.37;;;15.90;1.00;;;;;;5054034;28;20198;-80
2023/04/10 11:07:18;;;;;;;2.50;2.10;;;16.00;99.90;;;;;;5056708;28;20357;-80
2023/04/10 11:09:45;;;;;;;3.67;2.53;;;16.00;99.90;;;;;;5058567;28;20160;-80
2023/04/10 11:12:10;;;;;;;4.37;2.40;;;16.10;1.00;;;;;;5056734;28;20207;-80
2023/04/10 11:14:37;;;;;;;2.67;2.33;;;16.10;1.00;;;;;;5056679;28;20222;-79
2023/04/10 11:17:02;;;;;;;3.13;2.73;;;16.20;1.00;;;;;;5057733;28;20178;-80
2023/04/10 11:19:28;;;;;;;5.97;2.23;;;16.20;99.90;;;;;;5057698;28;20248;-80
2023/04/10 11:22:07;;;;;;;2.80;2.50;;;16.30;1.00;;;;;;5057735;28;20172;-80
2023/04/10 11:24:57;;;;;;;3.57;2.30;;;16.40;99.90;;;;;;5055907;28;20182;-80
2023/04/10 11:27:40;;;;;;;2.43;2.07;;;16.40;99.90;;;;;;5054668;28;20196;-80
2023/04/10 11:30:26;;;;;;;2.80;2.50;;;16.50;99.90;;;;;;5056223;28;20171;-80
2023/04/10 11:32:52;;;;;;;4.13;2.60;;;16.40;99.90;;;;;;5057895;28;20180;-80
2023/04/10 11:35:19;;;;;;;2.50;2.23;;;16.40;99.90;;;;;;5057567;28;20171;-80
2023/04/10 11:37:44;;;;;;;2.73;2.43;;;16.50;99.90;;;;;;5057136;28;20171;-79
2023/04/10 11:40:10;;;;;;;2.60;2.40;;;16.50;99.90;;;;;;5057229;28;20172;-80
2023/04/10 11:42:36;;;;;;;2.70;2.10;;;16.50;99.90;;;;;;5057276;28;20195;-79
2023/04/10 11:45:27;;;;;;;3.60;2.20;;;16.50;99.90;;;;;;5070451;28;20278;-80
2023/04/10 11:47:53;;;;;;;3.10;2.57;;;16.50;99.90;;;;;;5073462;28;20168;-79
2023/04/10 11:50:20;;;;;;;2.50;2.30;;;16.50;99.90;;;;;;5073404;28;20175;-79
2023/04/10 11:52:48;;;;;;;3.00;2.23;;;16.50;99.90;;;;;;5074989;28;20191;-79
2023/04/10 11:55:13;;;;;;;2.60;2.20;;;16.60;99.90;;;;;;5069668;28;20308;-79
2023/04/10 11:57:39;;;;;;;2.10;1.90;;;16.50;99.90;;;;;;5060913;28;20176;-80
2023/04/10 12:00:05;;;;;;;2.37;1.90;;;16.60;99.90;;;;;;5061051;28;20191;-79
2023/04/10 12:02:31;;;;;;;2.40;2.10;;;16.60;99.90;;;;;;5060876;28;20664;-79
2023/04/10 12:04:57;;;;;;;3.13;2.70;;;16.60;99.90;;;;;;5059738;28;20182;-79
2023/04/10 12:07:26;;;;;;;3.50;2.53;;;16.70;99.90;;;;;;5060377;28;20539;-81
2023/04/10 12:09:57;;;;;;;2.60;2.20;;;16.80;99.90;;;;;;5060593;28;20167;-80
2023/04/10 12:12:36;;;;;;;2.77;2.40;;;16.80;99.90;;;;;;5060443;28;20288;-80
2023/04/10 12:15:03;;;;;;;2.63;1.97;;;16.80;99.90;;;;;;5059457;28;20190;-80
2023/04/10 12:17:29;;;;;;;3.40;2.13;;;16.80;99.90;;;;;;5060482;28;20202;-80
2023/04/10 12:19:56;;;;;;;3.47;1.83;;;16.90;99.90;;;;;;5060058;28;20167;-80
2023/04/10 12:22:21;;;;;;;2.73;2.00;;;16.90;99.90;;;;;;5059815;28;20563;-78
2023/04/10 12:24:49;;;;;;;2.90;2.30;;;17.00;99.90;;;;;;5067525;28;20172;-79
2023/04/10 12:27:24;;;;;;;3.10;2.27;;;16.90;99.90;;;;;;5071924;28;20206;-80
2023/04/10 12:29:52;;;;;;;2.33;2.13;;;16.90;99.90;;;;;;5068681;28;20190;-79
2023/04/10 12:32:18;;;;;;;2.67;2.10;;;16.90;99.90;;;;;;5058066;28;20191;-80
2023/04/10 12:34:51;;;;;;;1.97;1.77;;;16.90;99.90;;;;;;5059111;28;20164;-80
2023/04/10 12:37:16;;;;;;;2.60;2.40;;;16.90;99.90;;;;;;5059524;28;20180;-79
2023/04/10 12:39:42;;;;;;;2.23;2.03;;;16.90;99.90;;;;;;5058503;28;20172;-79
2023/04/10 12:42:19;;;;;;;5.57;2.30;;;17.10;99.90;;;;;;5059224;28;20204;-80
2023/04/10 12:44:55;;;;;;;3.37;2.00;;;17.00;99.90;;;;;;5058929;28;20160;-79
2023/04/10 12:47:22;;;;;;;2.60;2.10;;;17.10;99.90;;;;;;5057675;28;20207;-80
2023/04/10 12:50:09;;;;;;;2.00;1.90;;;17.20;99.90;;;;;;5058696;28;20179;-80
2023/04/10 12:52:35;;;;;;;3.07;2.47;;;17.30;99.90;;;;;;5058668;28;20227;-80
2023/04/10 12:55:15;;;;;;;2.93;2.07;;;17.30;99.90;;;;;;5058996;28;20167;-80
2023/04/10 12:57:42;;;;;;;2.27;2.00;;;17.30;99.90;;;;;;5059426;28;20503;-80
2023/04/10 13:00:11;;;;;;;2.77;2.20;;;17.30;99.90;;;;;;5058868;28;20168;-80